createdAt,value
2023-02-22T00:03:08.137Z,2.50
2023-02-22T00:08:11.538Z,2.30
2023-02-22T00:13:14.659Z,2.30
2023-02-22T00:18:26.934Z,2.90
2023-02-22T00:23:31.932Z,3.10
2023-02-22T00:28:34.535Z,3.10
2023-02-22T00:33:39.549Z,2.90
2023-02-22T00:38:42.747Z,3.00
2023-02-22T00:43:45.502Z,3.10
2023-02-22T00:48:48.077Z,3.10
2023-02-22T00:53:50.642Z,2.50
2023-02-22T00:58:53.247Z,2.60
2023-02-22T01:03:55.934Z,2.60
2023-02-22T01:08:58.740Z,2.10
2023-02-22T01:14:01.499Z,2.50
2023-02-22T01:19:06.085Z,2.30
2023-02-22T01:24:10.080Z,2.50
2023-02-22T01:29:15.096Z,3.00
2023-02-22T01:34:18.596Z,2.80
2023-02-22T01:39:21.220Z,2.90
2023-02-22T01:44:41.555Z,2.80
2023-02-22T01:49:48.560Z,2.90
2023-02-22T01:54:56.047Z,2.90
2023-02-22T02:00:10.241Z,2.70
2023-02-22T02:05:14.334Z,2.80
2023-02-22T02:10:17.175Z,2.70
2023-02-22T02:15:36.143Z,2.50
2023-02-22T02:21:09.966Z,2.50
2023-02-22T02:26:32.208Z,2.50
2023-02-22T02:31:51.217Z,2.50
2023-02-22T02:37:07.873Z,2.50
2023-02-22T02:42:16.521Z,2.00
2023-02-22T02:47:27.276Z,2.90
2023-02-22T02:52:33.833Z,2.70
2023-02-22T02:57:38.850Z,2.60
2023-02-22T03:02:56.128Z,2.50
2023-02-22T03:08:24.442Z,2.50
2023-02-22T03:13:29.860Z,2.60
2023-02-22T03:18:46.214Z,3.10
2023-02-22T03:23:56.654Z,2.60
2023-02-22T03:29:05.015Z,2.40
2023-02-22T03:34:13.442Z,2.70
2023-02-22T03:39:18.719Z,2.60
2023-02-22T03:44:27.037Z,3.00
2023-02-22T03:49:55.807Z,2.90
2023-02-22T03:54:59.165Z,3.00
2023-02-22T04:00:06.656Z,3.40
2023-02-22T04:05:10.256Z,3.50
2023-02-22T04:10:15.251Z,3.90
2023-02-22T04:15:21.324Z,3.50
2023-02-22T04:20:25.467Z,3.90
2023-02-22T04:25:28.158Z,3.50
2023-02-22T04:30:31.014Z,3.40
2023-02-22T04:35:35.505Z,3.70
2023-02-22T04:40:38.826Z,4.30
2023-02-22T04:45:41.436Z,4.30
2023-02-22T04:50:44.056Z,4.30
2023-02-22T04:55:46.972Z,4.10
2023-02-22T05:00:49.576Z,3.70
2023-02-22T05:05:52.901Z,3.40
2023-02-22T05:10:58.465Z,4.70
2023-02-22T05:16:01.429Z,4.10
2023-02-22T05:21:04.171Z,3.50
2023-02-22T05:26:07.022Z,3.80
2023-02-22T05:31:09.750Z,4.30
2023-02-22T05:36:12.439Z,3.70
2023-02-22T05:41:15.795Z,3.80
2023-02-22T05:46:18.613Z,4.10
2023-02-22T05:51:21.329Z,4.00
2023-02-22T05:56:26.032Z,4.40
2023-02-22T06:01:28.938Z,3.60
2023-02-22T06:06:31.509Z,3.90
2023-02-22T06:11:34.094Z,3.80
2023-02-22T06:16:36.725Z,3.50
2023-02-22T06:21:41.969Z,4.70
2023-02-22T06:26:44.650Z,3.60
2023-02-22T06:31:47.279Z,3.30
2023-02-22T06:36:50.229Z,3.80
2023-02-22T06:41:55.155Z,4.10
2023-02-22T06:46:59.576Z,5.30
2023-02-22T06:52:06.937Z,4.00
2023-02-22T06:57:10.167Z,4.60
2023-02-22T07:02:17.812Z,5.10
2023-02-22T07:07:25.067Z,5.30
2023-02-22T07:12:27.612Z,4.80
2023-02-22T07:17:30.196Z,4.70
2023-02-22T07:22:32.728Z,4.70
2023-02-22T07:27:36.536Z,3.80
2023-02-22T07:32:39.437Z,3.30
2023-02-22T07:37:42.259Z,3.60
2023-02-22T07:43:02.174Z,3.30
2023-02-22T07:48:05.882Z,3.10
2023-02-22T07:53:18.855Z,2.90
2023-02-22T07:58:24.126Z,3.10
2023-02-22T08:03:27.227Z,3.10
2023-02-22T08:08:29.828Z,3.40
2023-02-22T08:13:32.848Z,3.00
2023-02-22T08:18:38.087Z,3.30
2023-02-22T08:23:40.674Z,3.60
2023-02-22T08:28:43.275Z,4.10
2023-02-22T08:33:49.821Z,5.00
2023-02-22T08:38:52.680Z,5.50
2023-02-22T08:43:55.207Z,6.20
2023-02-22T08:48:57.880Z,6.40
2023-02-22T08:54:00.596Z,5.90
2023-02-22T08:59:03.271Z,5.30
2023-02-22T09:04:05.947Z,6.00
2023-02-22T09:09:08.546Z,6.30
2023-02-22T09:14:11.098Z,6.50
2023-02-22T09:19:16.598Z,6.60
2023-02-22T09:24:19.937Z,6.40
2023-02-22T09:29:24.780Z,5.90
2023-02-22T09:34:29.648Z,9.90
2023-02-22T09:39:37.406Z,17.60
2023-02-22T09:44:53.468Z,9.70
2023-02-22T09:50:05.517Z,10.30
2023-02-22T09:55:45.308Z,6.80
2023-02-22T10:00:53.747Z,4.00
2023-02-22T10:06:19.361Z,5.00
2023-02-22T10:11:28.098Z,4.40
2023-02-22T10:16:40.382Z,4.30
2023-02-22T10:21:59.124Z,4.50
2023-02-22T10:27:03.282Z,4.30
2023-02-22T10:32:12.216Z,4.60
2023-02-22T10:37:34.478Z,4.10
2023-02-22T10:42:37.202Z,4.20
2023-02-22T10:47:40.883Z,4.60
2023-02-22T10:52:43.440Z,4.70
2023-02-22T10:57:49.686Z,4.70
2023-02-22T11:02:57.020Z,4.90
2023-02-22T11:08:17.122Z,3.60
2023-02-22T11:13:28.600Z,4.00
2023-02-22T11:18:35.483Z,4.30
2023-02-22T11:23:44.281Z,4.00
2023-02-22T11:28:57.012Z,3.40
2023-02-22T11:34:02.039Z,3.60
2023-02-22T11:39:22.166Z,4.00
2023-02-22T11:44:31.019Z,4.60
2023-02-22T11:49:39.428Z,4.00
2023-02-22T11:55:06.213Z,4.00
2023-02-22T12:00:39.408Z,3.70
2023-02-22T12:06:06.586Z,3.50
2023-02-22T12:11:57.179Z,2.80
2023-02-22T12:17:02.697Z,3.30
2023-02-22T12:22:12.835Z,2.70
2023-02-22T12:27:22.501Z,2.90
2023-02-22T12:32:47.536Z,2.70
2023-02-22T12:38:14.432Z,3.10
2023-02-22T12:43:26.027Z,3.30
2023-02-22T12:48:47.238Z,3.60
2023-02-22T12:53:57.951Z,2.90
2023-02-22T12:59:10.079Z,3.20
2023-02-22T13:04:20.546Z,2.40
2023-02-22T13:09:53.082Z,2.80
2023-02-22T13:15:20.142Z,2.70
2023-02-22T13:20:36.518Z,3.20
2023-02-22T13:25:49.767Z,3.60
2023-02-22T13:31:24.504Z,3.30
2023-02-22T13:36:59.010Z,3.00
2023-02-22T13:42:29.285Z,3.70
2023-02-22T13:47:53.447Z,4.30
2023-02-22T13:52:58.033Z,3.70
2023-02-22T13:58:07.151Z,2.70
2023-02-22T14:03:12.863Z,3.00
2023-02-22T14:08:18.963Z,2.90
2023-02-22T14:13:29.121Z,3.40
2023-02-22T14:18:41.079Z,3.30
2023-02-22T14:23:46.310Z,3.30
2023-02-22T14:28:55.167Z,2.80
2023-02-22T14:34:09.280Z,3.20
2023-02-22T14:39:43.926Z,4.50
2023-02-22T14:45:03.515Z,3.60
2023-02-22T14:50:30.478Z,3.80
2023-02-22T14:55:40.921Z,4.80
2023-02-22T15:00:47.220Z,4.90
2023-02-22T15:05:50.099Z,4.30
2023-02-22T15:10:54.375Z,7.70
2023-02-22T15:16:02.054Z,6.50
2023-02-22T15:21:11.556Z,12.60
2023-02-22T15:26:37.255Z,8.30
2023-02-22T15:31:46.997Z,5.10
2023-02-22T15:36:57.526Z,5.30
2023-02-22T15:42:09.686Z,4.70
2023-02-22T15:47:21.133Z,4.80
2023-02-22T15:52:26.524Z,5.40
2023-02-22T15:57:30.467Z,4.50
2023-02-22T16:02:39.915Z,4.00
2023-02-22T16:07:47.764Z,4.90
2023-02-22T16:13:02.708Z,7.40
2023-02-22T16:18:37.682Z,5.90
2023-02-22T16:24:15.428Z,8.70
2023-02-22T16:29:26.521Z,8.70
2023-02-22T16:34:30.207Z,9.20
2023-02-22T16:39:35.995Z,8.90
2023-02-22T16:44:39.766Z,11.40
2023-02-22T16:49:45.028Z,7.40
2023-02-22T16:54:49.296Z,7.50
2023-02-22T16:59:52.829Z,7.80
2023-02-22T17:04:56.329Z,9.80
2023-02-22T17:09:59.640Z,8.30
2023-02-22T17:15:03.495Z,7.70
2023-02-22T17:20:11.497Z,9.60
2023-02-22T17:25:25.447Z,7.00
2023-02-22T17:30:28.583Z,8.30
2023-02-22T17:35:36.605Z,5.90
2023-02-22T17:40:40.150Z,5.10
2023-02-22T17:45:43.192Z,6.30
2023-02-22T17:50:49.302Z,6.30
2023-02-22T17:55:52.979Z,6.10
2023-02-22T18:00:59.022Z,6.20
2023-02-22T18:06:01.819Z,4.70
2023-02-22T18:11:05.253Z,5.70
2023-02-22T18:16:10.369Z,4.60
2023-02-22T18:21:15.544Z,7.70
2023-02-22T18:26:21.904Z,8.50
2023-02-22T18:31:25.312Z,9.80
2023-02-22T18:36:29.258Z,9.80
2023-02-22T18:41:31.850Z,5.10
2023-02-22T18:46:36.871Z,5.90
2023-02-22T18:51:43.352Z,6.20
2023-02-22T18:56:45.997Z,6.70
2023-02-22T19:01:49.261Z,5.40
2023-02-22T19:06:56.530Z,4.60
2023-02-22T19:11:59.188Z,6.50
2023-02-22T19:17:02.978Z,6.50
2023-02-22T19:22:05.840Z,4.30
2023-02-22T19:27:09.003Z,6.00
2023-02-22T19:32:15.016Z,6.00
2023-02-22T19:37:18.701Z,5.50
2023-02-22T19:42:21.630Z,6.20
2023-02-22T19:47:24.350Z,6.90
2023-02-22T19:52:28.890Z,5.90
2023-02-22T19:57:32.231Z,7.50
2023-02-22T20:02:34.801Z,6.90
2023-02-22T20:07:37.507Z,6.80
2023-02-22T20:12:40.097Z,6.70
2023-02-22T20:17:44.874Z,6.40
2023-02-22T20:22:47.852Z,6.50
2023-02-22T20:27:50.465Z,6.80
2023-02-22T20:32:53.283Z,7.60
2023-02-22T20:37:56.327Z,7.10
2023-02-22T20:42:59.296Z,7.60
2023-02-22T20:48:02.904Z,5.90
2023-02-22T20:53:05.609Z,5.50
2023-02-22T20:58:08.254Z,4.50
2023-02-22T21:03:10.989Z,5.40
2023-02-22T21:08:15.585Z,9.60
2023-02-22T21:13:18.221Z,6.40
2023-02-22T21:18:23.350Z,5.80
2023-02-22T21:23:27.287Z,5.90
2023-02-22T21:28:49.943Z,7.40
2023-02-22T21:33:55.308Z,7.50
2023-02-22T21:39:00.836Z,7.00
2023-02-22T21:44:03.519Z,7.80
2023-02-22T21:49:06.155Z,7.30
2023-02-22T21:54:11.976Z,6.20
2023-02-22T21:59:20.378Z,7.10
2023-02-22T22:04:31.370Z,6.70
2023-02-22T22:09:37.432Z,6.70
2023-02-22T22:14:40.512Z,7.70
2023-02-22T22:19:48.902Z,7.30
2023-02-22T22:24:53.787Z,7.80
2023-02-22T22:29:57.316Z,8.30
2023-02-22T22:35:00.525Z,6.70
2023-02-22T22:40:05.356Z,6.90
2023-02-22T22:45:11.651Z,6.00
2023-02-22T22:50:18.774Z,7.30
2023-02-22T22:55:24.114Z,6.80
2023-02-22T23:00:34.813Z,8.80
2023-02-22T23:05:39.911Z,6.90
2023-02-22T23:10:42.616Z,6.10
2023-02-22T23:15:48.655Z,6.30
2023-02-22T23:20:55.442Z,6.90
2023-02-22T23:26:18.143Z,6.10
2023-02-22T23:31:21.178Z,6.10
2023-02-22T23:36:26.411Z,5.80
2023-02-22T23:41:29.900Z,6.00
2023-02-22T23:46:32.960Z,4.90
2023-02-22T23:51:41.898Z,4.80
2023-02-22T23:56:56.069Z,5.00
